createdAt,value
2023-03-03T00:00:51.546Z,15.20
2023-03-03T00:03:24.608Z,14.53
2023-03-03T00:05:54.191Z,15.03
2023-03-03T00:08:24.527Z,13.80
2023-03-03T00:10:55.785Z,14.80
2023-03-03T00:13:27.485Z,14.27
2023-03-03T00:16:00.551Z,15.07
2023-03-03T00:18:33.406Z,15.47
2023-03-03T00:21:03.108Z,14.00
2023-03-03T00:23:33.897Z,13.77
2023-03-03T00:26:03.736Z,14.93
2023-03-03T00:28:34.066Z,15.90
2023-03-03T00:31:04.521Z,13.53
2023-03-03T00:33:36.314Z,14.87
2023-03-03T00:36:22.678Z,15.03
2023-03-03T00:38:52.280Z,13.60
2023-03-03T00:41:25.075Z,12.70
2023-03-03T00:43:54.767Z,13.60
2023-03-03T00:46:24.903Z,14.80
2023-03-03T00:48:55.699Z,13.53
2023-03-03T00:51:28.714Z,13.53
2023-03-03T00:53:58.258Z,12.80
2023-03-03T00:56:28.023Z,13.87
2023-03-03T00:58:57.436Z,13.60
2023-03-03T01:01:28.441Z,14.13
2023-03-03T01:03:59.127Z,13.80
2023-03-03T01:06:28.542Z,13.23
2023-03-03T01:08:58.210Z,13.70
2023-03-03T01:11:28.863Z,13.77
2023-03-03T01:13:58.587Z,12.97
2023-03-03T01:16:29.386Z,13.27
2023-03-03T01:19:00.124Z,13.30
2023-03-03T01:21:29.374Z,13.73
2023-03-03T01:23:58.510Z,13.37
2023-03-03T01:26:28.490Z,12.73
2023-03-03T01:28:57.777Z,14.13
2023-03-03T01:31:27.282Z,12.70
2023-03-03T01:33:56.579Z,13.70
2023-03-03T01:36:27.739Z,13.57
2023-03-03T01:38:57.133Z,12.83
2023-03-03T01:41:29.292Z,12.33
2023-03-03T01:43:58.872Z,12.03
2023-03-03T01:46:32.902Z,12.00
2023-03-03T01:49:04.008Z,12.60
2023-03-03T01:51:36.070Z,13.40
2023-03-03T01:54:07.842Z,12.33
2023-03-03T01:56:37.162Z,11.43
2023-03-03T01:59:07.993Z,12.50
2023-03-03T02:02:02.420Z,12.50
2023-03-03T02:04:31.637Z,13.20
2023-03-03T02:07:04.559Z,12.80
2023-03-03T02:09:37.152Z,12.00
2023-03-03T02:12:09.806Z,10.50
2023-03-03T02:14:39.521Z,9.27
2023-03-03T02:17:09.043Z,11.70
2023-03-03T02:19:46.126Z,12.10
2023-03-03T02:22:17.984Z,11.33
2023-03-03T02:24:51.290Z,12.10
2023-03-03T02:27:24.588Z,12.47
2023-03-03T02:29:54.212Z,11.97
2023-03-03T02:32:23.631Z,12.00
2023-03-03T02:34:53.660Z,11.53
2023-03-03T02:37:23.186Z,11.50
2023-03-03T02:39:52.611Z,12.53
2023-03-03T02:42:23.368Z,12.43
2023-03-03T02:44:58.531Z,12.77
2023-03-03T02:47:27.969Z,11.83
2023-03-03T02:49:57.161Z,12.73
2023-03-03T02:52:26.587Z,11.93
2023-03-03T02:54:55.944Z,13.10
2023-03-03T02:57:25.185Z,12.97
2023-03-03T02:59:56.384Z,12.10
2023-03-03T03:02:27.780Z,11.33
2023-03-03T03:04:58.314Z,11.63
2023-03-03T03:07:28.309Z,12.60
2023-03-03T03:09:57.788Z,12.87
2023-03-03T03:12:30.090Z,11.43
2023-03-03T03:15:00.125Z,13.27
2023-03-03T03:17:31.625Z,11.30
2023-03-03T03:20:02.631Z,12.90
2023-03-03T03:22:32.910Z,11.80
2023-03-03T03:25:02.229Z,13.50
2023-03-03T03:27:32.292Z,12.70
2023-03-03T03:30:01.546Z,11.97
2023-03-03T03:32:33.498Z,12.30
2023-03-03T03:35:03.340Z,9.80
2023-03-03T03:37:32.604Z,13.47
2023-03-03T03:40:02.052Z,12.77
2023-03-03T03:42:32.653Z,12.80
2023-03-03T03:45:02.005Z,12.43
2023-03-03T03:47:31.612Z,11.90
2023-03-03T03:50:02.433Z,13.63
2023-03-03T03:52:31.859Z,13.30
2023-03-03T03:55:01.128Z,12.47
2023-03-03T03:57:31.044Z,12.60
2023-03-03T04:00:00.460Z,13.00
2023-03-03T04:02:30.318Z,13.23
2023-03-03T04:04:59.757Z,13.17
2023-03-03T04:07:30.806Z,12.77
2023-03-03T04:10:00.488Z,13.03
2023-03-03T04:12:30.524Z,13.33
2023-03-03T04:15:00.208Z,12.03
2023-03-03T04:17:30.477Z,12.27
2023-03-03T04:19:59.783Z,13.20
2023-03-03T04:22:34.242Z,12.93
2023-03-03T04:25:05.483Z,12.50
2023-03-03T04:27:39.809Z,12.67
2023-03-03T04:30:10.525Z,12.70
2023-03-03T04:32:41.355Z,10.90
2023-03-03T04:35:13.549Z,13.00
2023-03-03T04:37:47.185Z,9.00
2023-03-03T04:40:18.503Z,12.67
2023-03-03T04:42:50.390Z,13.07
2023-03-03T04:45:20.179Z,12.23
2023-03-03T04:47:49.734Z,13.03
2023-03-03T04:50:19.482Z,12.30
2023-03-03T04:52:50.185Z,13.70
2023-03-03T04:55:19.703Z,13.40
2023-03-03T04:57:50.483Z,13.53
2023-03-03T05:00:20.948Z,12.10
2023-03-03T05:02:50.688Z,13.13
2023-03-03T05:05:20.234Z,13.50
2023-03-03T05:07:51.638Z,14.40
2023-03-03T05:10:21.787Z,12.73
2023-03-03T05:12:50.993Z,12.93
2023-03-03T05:15:20.481Z,13.60
2023-03-03T05:17:50.027Z,13.00
2023-03-03T05:20:19.525Z,14.17
2023-03-03T05:22:48.695Z,12.53
2023-03-03T05:25:19.705Z,12.50
2023-03-03T05:27:49.348Z,13.17
2023-03-03T05:30:18.513Z,13.70
2023-03-03T05:32:48.318Z,13.80
2023-03-03T05:35:17.874Z,12.80
2023-03-03T05:37:47.979Z,12.33
2023-03-03T05:40:17.481Z,13.43
2023-03-03T05:42:48.246Z,12.93
2023-03-03T05:45:20.657Z,13.33
2023-03-03T05:47:50.212Z,14.23
2023-03-03T05:50:19.483Z,13.67
2023-03-03T05:52:50.216Z,13.20
2023-03-03T05:55:19.486Z,13.00
2023-03-03T05:57:50.741Z,13.13
2023-03-03T06:00:20.498Z,14.50
2023-03-03T06:02:49.746Z,12.80
2023-03-03T06:05:19.385Z,13.97
2023-03-03T06:07:48.588Z,13.83
2023-03-03T06:10:18.242Z,12.70
2023-03-03T06:12:53.185Z,13.93
2023-03-03T06:15:22.463Z,15.10
2023-03-03T06:17:52.138Z,13.83
2023-03-03T06:20:21.986Z,14.53
2023-03-03T06:22:51.143Z,15.57
2023-03-03T06:25:20.516Z,12.20
2023-03-03T06:27:49.758Z,15.70
2023-03-03T06:30:20.441Z,14.30
2023-03-03T06:32:49.677Z,14.23
2023-03-03T06:35:19.260Z,14.97
2023-03-03T06:37:51.019Z,12.07
2023-03-03T06:40:20.642Z,14.67
2023-03-03T06:42:49.942Z,15.07
2023-03-03T06:45:20.825Z,14.30
2023-03-03T06:47:50.071Z,15.77
2023-03-03T06:50:21.118Z,15.20
2023-03-03T06:52:50.518Z,14.60
2023-03-03T06:55:23.884Z,14.70
2023-03-03T06:57:56.241Z,15.90
2023-03-03T07:00:30.865Z,15.73
2023-03-03T07:03:01.672Z,15.60
2023-03-03T07:05:31.297Z,14.43
2023-03-03T07:08:00.786Z,13.23
2023-03-03T07:10:31.552Z,11.60
2023-03-03T07:13:04.662Z,15.43
2023-03-03T07:15:36.566Z,15.10
2023-03-03T07:18:14.128Z,15.47
2023-03-03T07:20:43.637Z,15.00
2023-03-03T07:23:18.218Z,16.40
2023-03-03T07:25:48.822Z,16.30
2023-03-03T07:28:22.883Z,15.33
2023-03-03T07:30:54.000Z,15.07
2023-03-03T07:33:27.694Z,15.07
2023-03-03T07:35:57.619Z,15.60
2023-03-03T07:38:27.831Z,16.20
2023-03-03T07:40:58.057Z,14.60
2023-03-03T07:43:45.132Z,15.67
2023-03-03T07:46:25.876Z,16.43
2023-03-03T07:48:55.589Z,16.40
2023-03-03T07:51:28.002Z,14.70
2023-03-03T07:54:03.230Z,15.43
2023-03-03T07:56:33.293Z,15.43
2023-03-03T07:59:05.077Z,15.37
2023-03-03T08:01:43.022Z,14.70
2023-03-03T08:04:15.537Z,16.73
2023-03-03T08:06:47.562Z,15.10
2023-03-03T08:09:35.197Z,17.20
2023-03-03T08:12:13.782Z,20.77
2023-03-03T08:14:42.993Z,16.27
2023-03-03T08:17:17.165Z,15.63
2023-03-03T08:19:46.592Z,14.40
2023-03-03T08:22:17.554Z,12.30
2023-03-03T08:24:47.046Z,14.57
2023-03-03T08:27:16.440Z,14.70
2023-03-03T08:29:48.213Z,15.00
2023-03-03T08:32:19.521Z,14.70
2023-03-03T08:34:48.942Z,14.77
2023-03-03T08:37:18.155Z,16.30
2023-03-03T08:39:47.522Z,15.60
2023-03-03T08:42:16.957Z,15.60
2023-03-03T08:44:46.409Z,15.70
2023-03-03T08:47:16.127Z,14.00
2023-03-03T08:49:46.799Z,16.00
2023-03-03T08:52:15.979Z,14.57
2023-03-03T08:54:45.451Z,15.60
2023-03-03T08:57:14.684Z,14.90
2023-03-03T08:59:44.096Z,15.00
2023-03-03T09:02:13.400Z,14.97
2023-03-03T09:04:42.807Z,14.17
2023-03-03T09:07:13.673Z,15.73
2023-03-03T09:09:43.195Z,15.07
2023-03-03T09:12:17.138Z,16.00
2023-03-03T09:14:47.795Z,15.20
2023-03-03T09:17:27.043Z,16.00
2023-03-03T09:19:58.443Z,15.97
2023-03-03T09:22:30.214Z,15.97
2023-03-03T09:25:02.245Z,14.17
2023-03-03T09:27:32.432Z,15.27
2023-03-03T09:30:04.219Z,15.00
2023-03-03T09:32:35.997Z,15.03
2023-03-03T09:35:20.169Z,14.30
2023-03-03T09:37:52.336Z,15.77
2023-03-03T09:40:36.761Z,14.60
2023-03-03T09:43:07.504Z,14.63
2023-03-03T09:45:57.997Z,15.17
2023-03-03T09:48:30.735Z,15.40
2023-03-03T09:51:04.782Z,14.80
2023-03-03T09:53:44.667Z,14.20
2023-03-03T09:56:18.331Z,16.60
2023-03-03T09:58:55.704Z,16.07
2023-03-03T10:01:38.382Z,15.60
2023-03-03T10:04:21.428Z,14.30
2023-03-03T10:06:55.852Z,15.10
2023-03-03T10:09:42.825Z,16.43
2023-03-03T10:12:17.897Z,15.50
2023-03-03T10:14:56.992Z,14.63
2023-03-03T10:17:35.211Z,15.30
2023-03-03T10:20:08.686Z,15.30
2023-03-03T10:22:42.468Z,15.37
2023-03-03T10:25:19.931Z,16.87
2023-03-03T10:28:09.200Z,17.43
2023-03-03T10:30:54.734Z,16.60
2023-03-03T10:33:36.493Z,15.27
2023-03-03T10:36:22.567Z,17.30
2023-03-03T10:38:59.090Z,17.77
2023-03-03T10:41:42.050Z,17.33
2023-03-03T10:44:20.463Z,16.77
2023-03-03T10:47:08.154Z,18.17
2023-03-03T10:49:48.897Z,17.77
2023-03-03T10:52:24.825Z,17.70
2023-03-03T10:55:02.089Z,16.67
2023-03-03T10:57:37.900Z,17.70
2023-03-03T11:00:24.760Z,18.10
2023-03-03T11:03:00.658Z,18.83
2023-03-03T11:05:35.168Z,18.53
2023-03-03T11:08:07.714Z,18.63
2023-03-03T11:10:42.471Z,19.50
2023-03-03T11:13:17.746Z,20.00
2023-03-03T11:15:51.684Z,20.23
2023-03-03T11:18:27.285Z,20.53
2023-03-03T11:20:59.777Z,18.90
2023-03-03T11:23:41.477Z,17.73
2023-03-03T11:26:12.490Z,20.10
2023-03-03T11:28:50.582Z,18.97
2023-03-03T11:31:23.521Z,20.50
2023-03-03T11:33:59.592Z,19.07
2023-03-03T11:36:30.614Z,20.53
2023-03-03T11:39:01.298Z,20.10
2023-03-03T11:41:34.931Z,19.13
2023-03-03T11:44:12.798Z,20.60
2023-03-03T11:46:44.973Z,19.70
2023-03-03T11:49:17.377Z,21.70
2023-03-03T11:51:50.188Z,20.77
2023-03-03T11:54:22.434Z,21.43
2023-03-03T11:56:51.956Z,21.23
2023-03-03T11:59:38.591Z,21.90
2023-03-03T12:02:13.104Z,21.07
2023-03-03T12:04:44.576Z,20.23
2023-03-03T12:07:20.052Z,20.23
2023-03-03T12:09:56.561Z,20.77
2023-03-03T12:12:27.149Z,20.67
2023-03-03T12:15:04.679Z,23.27
2023-03-03T12:17:51.033Z,21.33
2023-03-03T12:20:24.727Z,23.40
2023-03-03T12:23:06.898Z,22.10
2023-03-03T12:25:38.763Z,24.13
2023-03-03T12:28:11.140Z,21.10
2023-03-03T12:30:49.826Z,20.20
2023-03-03T12:33:23.479Z,22.23
2023-03-03T12:35:57.085Z,20.93
2023-03-03T12:38:32.879Z,20.40
2023-03-03T12:41:05.808Z,19.53
2023-03-03T12:43:42.509Z,19.00
2023-03-03T12:46:18.284Z,21.70
2023-03-03T12:48:48.404Z,20.20
2023-03-03T12:51:22.744Z,20.20
2023-03-03T12:53:59.648Z,20.17
2023-03-03T12:56:31.888Z,21.97
2023-03-03T12:59:06.129Z,21.20
2023-03-03T13:01:43.716Z,20.47
2023-03-03T13:04:15.850Z,20.87
2023-03-03T13:06:46.875Z,23.50
2023-03-03T13:09:23.400Z,18.90
2023-03-03T13:12:01.707Z,20.80
2023-03-03T13:14:36.469Z,21.20
2023-03-03T13:17:11.910Z,22.37
2023-03-03T13:19:42.987Z,21.67
2023-03-03T13:22:15.923Z,21.10
2023-03-03T13:24:51.490Z,21.53
2023-03-03T13:27:22.518Z,21.77
2023-03-03T13:29:58.906Z,21.43
2023-03-03T13:32:34.517Z,21.50
2023-03-03T13:35:06.389Z,20.03
2023-03-03T13:37:38.077Z,21.17
2023-03-03T13:40:08.844Z,22.30
2023-03-03T13:42:41.638Z,21.30
2023-03-03T13:45:19.885Z,18.80
2023-03-03T13:47:52.958Z,19.80
2023-03-03T13:50:25.310Z,20.90
2023-03-03T13:53:01.488Z,22.23
2023-03-03T13:55:32.429Z,21.23
2023-03-03T13:58:03.465Z,22.50
2023-03-03T14:00:38.619Z,20.23
2023-03-03T14:03:18.449Z,20.87
2023-03-03T14:05:48.317Z,19.33
2023-03-03T14:08:22.265Z,21.57
2023-03-03T14:10:57.111Z,19.77
2023-03-03T14:13:31.226Z,20.33
2023-03-03T14:16:04.005Z,20.50
2023-03-03T14:18:36.883Z,22.70
2023-03-03T14:21:08.134Z,21.23
2023-03-03T14:23:45.708Z,22.10
2023-03-03T14:26:15.705Z,21.87
2023-03-03T14:28:46.010Z,20.10
2023-03-03T14:31:20.172Z,21.40
2023-03-03T14:33:59.828Z,21.17
2023-03-03T14:36:30.790Z,21.90
2023-03-03T14:39:00.237Z,21.17
2023-03-03T14:41:40.928Z,19.70
2023-03-03T14:44:25.002Z,20.03
2023-03-03T14:47:04.138Z,20.33
2023-03-03T14:49:37.164Z,20.90
2023-03-03T14:52:13.739Z,20.07
2023-03-03T14:54:46.345Z,20.83
2023-03-03T14:57:18.247Z,19.33
2023-03-03T15:00:00.589Z,18.23
2023-03-03T15:02:31.669Z,19.27
2023-03-03T15:05:16.208Z,24.33
2023-03-03T15:07:47.213Z,18.17
2023-03-03T15:10:28.495Z,17.10
2023-03-03T15:12:57.946Z,18.00
2023-03-03T15:15:30.129Z,18.53
2023-03-03T15:18:02.850Z,17.83
2023-03-03T15:20:43.651Z,19.70
2023-03-03T15:23:33.264Z,21.20
2023-03-03T15:26:04.532Z,18.00
2023-03-03T15:28:37.837Z,19.70
2023-03-03T15:31:13.653Z,21.70
2023-03-03T15:33:48.127Z,17.90
2023-03-03T15:36:23.024Z,18.00
2023-03-03T15:38:58.731Z,18.93
2023-03-03T15:41:29.127Z,19.77
2023-03-03T15:44:03.012Z,17.93
2023-03-03T15:46:38.105Z,17.40
2023-03-03T15:49:15.968Z,16.80
2023-03-03T15:52:03.108Z,18.23
2023-03-03T15:54:48.346Z,16.00
2023-03-03T15:57:23.953Z,16.60
2023-03-03T16:00:05.243Z,15.70
2023-03-03T16:02:45.345Z,15.83
2023-03-03T16:05:17.103Z,16.20
2023-03-03T16:07:53.361Z,18.73
2023-03-03T16:10:26.900Z,16.47
2023-03-03T16:12:59.216Z,16.40
2023-03-03T16:15:40.239Z,16.80
2023-03-03T16:18:13.603Z,16.20
2023-03-03T16:20:47.648Z,16.43
2023-03-03T16:23:19.467Z,15.40
2023-03-03T16:26:00.389Z,17.93
2023-03-03T16:28:53.728Z,17.63
2023-03-03T16:31:24.869Z,16.67
2023-03-03T16:33:59.507Z,15.93
2023-03-03T16:36:31.813Z,18.40
2023-03-03T16:39:04.305Z,20.77
2023-03-03T16:41:40.770Z,17.10
2023-03-03T16:44:15.115Z,18.77
2023-03-03T16:46:45.782Z,16.67
2023-03-03T16:49:17.643Z,16.40
2023-03-03T16:51:51.137Z,17.00
2023-03-03T16:54:23.029Z,16.90
2023-03-03T16:57:01.178Z,17.47
2023-03-03T16:59:50.784Z,16.30
2023-03-03T17:02:34.876Z,15.37
2023-03-03T17:05:07.794Z,16.00
2023-03-03T17:07:43.614Z,18.30
2023-03-03T17:10:20.529Z,16.40
2023-03-03T17:12:58.705Z,17.33
2023-03-03T17:15:34.552Z,15.40
2023-03-03T17:18:07.557Z,19.53
2023-03-03T17:20:39.805Z,17.50
2023-03-03T17:23:19.755Z,14.80
2023-03-03T17:25:52.346Z,16.80
2023-03-03T17:28:30.984Z,18.30
2023-03-03T17:31:04.592Z,14.67
2023-03-03T17:33:41.083Z,18.87
2023-03-03T17:36:18.627Z,17.33
2023-03-03T17:38:56.498Z,16.23
2023-03-03T17:41:28.169Z,17.00
2023-03-03T17:44:01.673Z,14.80
2023-03-03T17:46:35.186Z,20.70
2023-03-03T17:49:23.252Z,22.80
2023-03-03T17:52:13.377Z,19.90
2023-03-03T17:54:51.704Z,19.80
2023-03-03T17:57:26.847Z,17.47
2023-03-03T18:00:14.465Z,16.53
2023-03-03T18:02:47.527Z,19.17
2023-03-03T18:05:38.051Z,18.30
2023-03-03T18:08:25.176Z,20.20
2023-03-03T18:11:16.406Z,21.73
2023-03-03T18:13:55.036Z,16.77
2023-03-03T18:16:31.596Z,19.27
2023-03-03T18:19:15.168Z,18.27
2023-03-03T18:21:46.274Z,17.77
2023-03-03T18:24:29.844Z,15.50
2023-03-03T18:27:14.606Z,18.17
2023-03-03T18:30:03.905Z,17.63
2023-03-03T18:32:44.559Z,22.43
2023-03-03T18:35:26.626Z,17.13
2023-03-03T18:37:57.211Z,20.20
2023-03-03T18:40:31.936Z,26.33
2023-03-03T18:43:01.487Z,16.10
2023-03-03T18:45:50.841Z,17.47
2023-03-03T18:48:22.270Z,18.97
2023-03-03T18:50:52.661Z,20.10
2023-03-03T18:53:27.040Z,16.87
2023-03-03T18:55:57.536Z,15.10
2023-03-03T18:58:35.176Z,16.43
2023-03-03T19:01:22.090Z,15.70
2023-03-03T19:04:03.242Z,15.63
2023-03-03T19:06:34.655Z,15.13
2023-03-03T19:09:04.284Z,15.60
2023-03-03T19:11:35.539Z,17.17
2023-03-03T19:14:21.088Z,16.23
2023-03-03T19:16:52.080Z,15.33
2023-03-03T19:19:24.304Z,16.80
2023-03-03T19:21:54.649Z,16.53
2023-03-03T19:24:32.202Z,16.33
2023-03-03T19:27:10.071Z,17.93
2023-03-03T19:29:58.557Z,18.23
2023-03-03T19:32:36.562Z,17.50
2023-03-03T19:35:15.864Z,20.47
2023-03-03T19:37:50.841Z,19.13
2023-03-03T19:40:23.580Z,21.03
2023-03-03T19:42:59.157Z,20.30
2023-03-03T19:45:33.998Z,20.97
2023-03-03T19:48:07.251Z,20.83
2023-03-03T19:50:44.097Z,18.60
2023-03-03T19:53:20.759Z,19.27
2023-03-03T19:55:56.915Z,20.07
2023-03-03T19:58:31.415Z,18.50
2023-03-03T20:01:31.762Z,18.93
2023-03-03T20:04:06.063Z,19.97
2023-03-03T20:06:43.758Z,22.97
2023-03-03T20:09:18.805Z,22.30
2023-03-03T20:11:56.483Z,20.33
2023-03-03T20:14:33.376Z,20.77
2023-03-03T20:17:07.429Z,21.20
2023-03-03T20:19:42.475Z,19.50
2023-03-03T20:22:15.719Z,22.13
2023-03-03T20:25:03.969Z,21.10
2023-03-03T20:27:37.154Z,19.70
2023-03-03T20:30:14.330Z,22.20
2023-03-03T20:32:55.389Z,29.73
2023-03-03T20:35:30.609Z,23.10
2023-03-03T20:38:05.891Z,19.60
2023-03-03T20:40:39.204Z,20.73
2023-03-03T20:43:15.015Z,21.57
2023-03-03T20:45:49.097Z,22.70
2023-03-03T20:48:24.682Z,20.00
2023-03-03T20:50:58.131Z,20.30
2023-03-03T20:53:32.896Z,19.50
2023-03-03T20:56:05.239Z,20.87
2023-03-03T20:58:39.454Z,21.77
2023-03-03T21:01:09.869Z,20.97
2023-03-03T21:03:41.070Z,21.03
2023-03-03T21:06:15.550Z,19.13
2023-03-03T21:08:48.575Z,21.53
2023-03-03T21:11:19.869Z,19.80
2023-03-03T21:13:51.914Z,23.20
2023-03-03T21:16:41.861Z,21.77
2023-03-03T21:19:12.518Z,21.90
2023-03-03T21:21:42.270Z,21.47
2023-03-03T21:24:19.865Z,18.97
2023-03-03T21:26:50.794Z,20.83
2023-03-03T21:29:20.838Z,19.60
2023-03-03T21:31:50.843Z,20.70
2023-03-03T21:34:25.021Z,19.70
2023-03-03T21:36:55.198Z,21.10
2023-03-03T21:39:27.543Z,21.37
2023-03-03T21:41:58.076Z,20.90
2023-03-03T21:44:31.136Z,21.20
2023-03-03T21:47:00.949Z,22.13
2023-03-03T21:49:30.458Z,21.00
2023-03-03T21:51:59.783Z,22.50
2023-03-03T21:54:30.451Z,22.30
2023-03-03T21:56:59.850Z,22.07
2023-03-03T21:59:29.059Z,21.27
2023-03-03T22:01:58.310Z,22.23
2023-03-03T22:04:28.027Z,20.53
2023-03-03T22:06:57.452Z,22.00
2023-03-03T22:09:26.792Z,22.63
2023-03-03T22:11:57.682Z,22.67
2023-03-03T22:14:26.998Z,23.53
2023-03-03T22:16:56.182Z,21.23
2023-03-03T22:19:25.364Z,21.50
2023-03-03T22:21:54.637Z,21.30
2023-03-03T22:24:23.993Z,22.73
2023-03-03T22:26:53.162Z,23.43
2023-03-03T22:29:24.050Z,22.60
2023-03-03T22:31:53.501Z,23.37
2023-03-03T22:34:22.894Z,21.63
2023-03-03T22:36:52.142Z,22.73
2023-03-03T22:39:21.853Z,21.87
2023-03-03T22:41:51.945Z,23.70
2023-03-03T22:44:21.195Z,22.40
2023-03-03T22:46:51.968Z,22.67
2023-03-03T22:49:21.447Z,23.03
2023-03-03T22:51:50.691Z,23.70
2023-03-03T22:54:20.246Z,26.40
2023-03-03T22:56:49.493Z,24.87
2023-03-03T22:59:18.994Z,23.27
2023-03-03T23:01:48.702Z,23.47
2023-03-03T23:04:19.683Z,21.27
2023-03-03T23:06:50.243Z,22.80
2023-03-03T23:09:19.653Z,22.90
2023-03-03T23:11:48.787Z,24.07
2023-03-03T23:14:18.388Z,24.50
2023-03-03T23:16:47.624Z,24.10
2023-03-03T23:19:17.075Z,24.20
2023-03-03T23:21:47.685Z,24.10
2023-03-03T23:24:17.336Z,24.30
2023-03-03T23:26:46.628Z,26.93
2023-03-03T23:29:16.315Z,23.57
2023-03-03T23:31:45.535Z,23.20
2023-03-03T23:34:14.806Z,23.70
2023-03-03T23:36:44.214Z,24.87
2023-03-03T23:39:15.580Z,23.00
2023-03-03T23:41:45.420Z,21.77
2023-03-03T23:44:14.660Z,22.33
2023-03-03T23:46:44.054Z,21.17
2023-03-03T23:49:13.623Z,21.60
2023-03-03T23:51:42.925Z,24.10
2023-03-03T23:54:12.181Z,23.77
2023-03-03T23:56:42.853Z,22.57
2023-03-03T23:59:12.086Z,21.43
